createdAt,value
2019-01-13T00:04:16.122Z,7.20
2019-01-13T00:05:58.779Z,7.20
2019-01-13T00:07:22.289Z,7.20
2019-01-13T00:09:04.965Z,7.20
2019-01-13T00:10:28.540Z,7.20
2019-01-13T00:12:11.218Z,7.20
2019-01-13T00:13:34.754Z,7.20
2019-01-13T00:14:58.254Z,7.20
2019-01-13T00:16:21.768Z,7.20
2019-01-13T00:18:04.441Z,7.20
2019-01-13T00:19:27.962Z,7.30
2019-01-13T00:20:51.457Z,7.30
2019-01-13T00:22:07.330Z,7.30
2019-01-13T00:23:21.746Z,7.30
2019-01-13T00:25:04.400Z,7.30
2019-01-13T00:26:27.886Z,7.30
2019-01-13T00:28:10.554Z,7.30
2019-01-13T00:29:34.061Z,7.30
2019-01-13T00:30:57.587Z,7.30
2019-01-13T00:32:21.106Z,7.30
2019-01-13T00:33:44.629Z,7.30
2019-01-13T00:35:08.214Z,7.30
2019-01-13T00:36:31.741Z,7.30
2019-01-13T00:38:14.359Z,7.30
2019-01-13T00:39:37.855Z,7.40
2019-01-13T00:41:01.379Z,7.40
2019-01-13T00:42:24.910Z,7.40
2019-01-13T00:45:36.926Z,7.40
2019-01-13T00:47:37.271Z,7.40
2019-01-13T00:49:00.778Z,7.40
2019-01-13T00:50:24.297Z,7.40
2019-01-13T00:51:47.795Z,7.40
2019-01-13T00:53:11.314Z,7.40
2019-01-13T00:54:34.836Z,7.40
2019-01-13T00:55:58.354Z,7.40
2019-01-13T00:57:21.854Z,7.40
2019-01-13T00:58:45.393Z,7.40
2019-01-13T01:02:14.666Z,7.30
2019-01-13T01:04:00.238Z,7.30
2019-01-13T01:05:23.735Z,7.30
2019-01-13T01:06:47.241Z,7.30
2019-01-13T01:08:10.745Z,7.30
2019-01-13T01:09:34.314Z,7.30
2019-01-13T01:10:57.811Z,7.30
2019-01-13T01:12:21.331Z,7.30
2019-01-13T01:13:44.918Z,7.30
2019-01-13T01:15:09.327Z,7.30
2019-01-13T01:16:33.078Z,7.30
2019-01-13T01:17:56.845Z,7.30
2019-01-13T01:19:20.650Z,7.30
2019-01-13T01:20:44.585Z,7.30
2019-01-13T01:21:58.506Z,7.20
2019-01-13T01:23:22.007Z,7.20
2019-01-13T01:24:45.523Z,7.30
2019-01-13T01:26:09.098Z,7.30
2019-01-13T01:27:32.612Z,7.30
2019-01-13T01:28:56.106Z,7.30
2019-01-13T01:30:19.882Z,7.30
2019-01-13T01:31:43.365Z,7.20
2019-01-13T01:35:26.159Z,7.30
2019-01-13T01:36:49.693Z,7.30
2019-01-13T01:38:32.388Z,7.30
2019-01-13T01:39:55.962Z,7.30
2019-01-13T01:41:19.482Z,7.30
2019-01-13T01:42:42.991Z,7.30
2019-01-13T01:44:06.587Z,7.30
2019-01-13T01:45:30.110Z,7.30
2019-01-13T01:46:53.624Z,7.30
2019-01-13T01:48:36.277Z,7.30
2019-01-13T01:49:59.777Z,7.30
2019-01-13T01:51:23.302Z,7.30
2019-01-13T01:53:04.441Z,7.30
2019-01-13T01:54:27.934Z,7.30
2019-01-13T01:55:51.444Z,7.30
2019-01-13T01:57:14.960Z,7.30
2019-01-13T01:58:38.478Z,7.30
2019-01-13T02:00:01.985Z,7.30
2019-01-13T02:01:25.490Z,7.20
2019-01-13T02:04:52.305Z,7.20
2019-01-13T02:06:17.418Z,7.20
2019-01-13T02:09:44.137Z,7.20
2019-01-13T02:11:26.799Z,7.20
2019-01-13T02:13:09.971Z,7.10
2019-01-13T02:14:33.458Z,7.10
2019-01-13T02:15:56.958Z,7.00
2019-01-13T02:17:20.544Z,7.00
2019-01-13T02:18:44.054Z,7.00
2019-01-13T02:22:02.477Z,7.00
2019-01-13T02:23:25.987Z,7.00
2019-01-13T02:24:49.478Z,7.00
2019-01-13T02:26:13.003Z,7.00
2019-01-13T02:27:36.506Z,7.00
2019-01-13T02:28:59.997Z,7.00
2019-01-13T02:31:47.319Z,7.00
2019-01-13T02:33:10.801Z,6.90
2019-01-13T02:34:34.325Z,6.90
2019-01-13T02:35:57.822Z,6.90
2019-01-13T02:37:21.327Z,6.80
2019-01-13T02:38:44.821Z,6.80
2019-01-13T02:40:09.276Z,6.70
2019-01-13T02:41:32.783Z,6.70
2019-01-13T02:42:56.271Z,6.70
2019-01-13T02:44:19.774Z,6.70
2019-01-13T02:48:26.020Z,6.70
2019-01-13T02:49:49.515Z,6.70
2019-01-13T02:51:13.026Z,6.70
2019-01-13T02:52:36.534Z,6.80
2019-01-13T02:54:00.021Z,6.80
2019-01-13T02:55:23.513Z,6.80
2019-01-13T02:56:47.032Z,6.80
2019-01-13T02:58:10.514Z,6.90
2019-01-13T02:59:34.002Z,6.90
2019-01-13T03:00:57.560Z,6.90
2019-01-13T03:02:22.702Z,7.00
2019-01-13T03:04:05.380Z,7.00
2019-01-13T03:05:29.022Z,7.00
2019-01-13T03:06:52.533Z,7.00
2019-01-13T03:08:16.035Z,7.10
2019-01-13T03:09:39.529Z,7.10
2019-01-13T03:11:03.021Z,7.10
2019-01-13T03:12:26.534Z,7.10
2019-01-13T03:13:50.032Z,7.10
2019-01-13T03:17:17.835Z,7.20
2019-01-13T03:18:41.342Z,7.20
2019-01-13T03:21:59.070Z,7.20
2019-01-13T03:23:22.553Z,7.20
2019-01-13T03:24:46.067Z,7.20
2019-01-13T03:26:09.558Z,7.20
2019-01-13T03:27:33.066Z,7.20
2019-01-13T03:28:56.561Z,7.20
2019-01-13T03:32:03.742Z,7.20
2019-01-13T03:33:27.235Z,7.20
2019-01-13T03:36:53.945Z,7.10
2019-01-13T03:38:17.443Z,7.10
2019-01-13T03:39:40.944Z,7.10
2019-01-13T03:41:04.447Z,7.10
2019-01-13T03:42:27.959Z,7.10
2019-01-13T03:43:51.458Z,7.10
2019-01-13T03:45:15.032Z,7.20
2019-01-13T03:46:38.521Z,7.20
2019-01-13T03:48:02.031Z,7.20
2019-01-13T03:49:25.519Z,7.20
2019-01-13T03:50:49.090Z,7.20
2019-01-13T03:52:31.758Z,7.20
2019-01-13T03:53:55.262Z,7.20
2019-01-13T03:57:22.477Z,7.30
2019-01-13T03:58:45.984Z,7.30
2019-01-13T04:01:33.278Z,7.30
2019-01-13T04:03:15.954Z,7.30
2019-01-13T04:04:39.456Z,7.30
2019-01-13T04:06:02.946Z,7.30
2019-01-13T04:07:26.451Z,7.30
2019-01-13T04:08:49.952Z,7.30
2019-01-13T04:12:17.183Z,7.20
2019-01-13T04:13:40.678Z,7.20
2019-01-13T04:19:00.832Z,7.20
2019-01-13T04:20:24.330Z,7.20
2019-01-13T04:21:38.434Z,7.20
2019-01-13T04:23:00.895Z,7.20
2019-01-13T04:24:24.387Z,7.20
2019-01-13T04:25:47.923Z,7.20
2019-01-13T04:27:11.433Z,7.20
2019-01-13T04:28:34.934Z,7.20
2019-01-13T04:29:58.414Z,7.20
2019-01-13T04:31:26.729Z,7.20
2019-01-13T04:32:47.107Z,7.20
2019-01-13T04:34:10.614Z,7.20
2019-01-13T04:35:53.267Z,7.20
2019-01-13T04:37:16.756Z,7.20
2019-01-13T04:38:40.272Z,7.20
2019-01-13T04:42:23.289Z,7.20
2019-01-13T04:43:46.806Z,7.20
2019-01-13T04:47:13.526Z,7.20
2019-01-13T04:48:37.050Z,7.20
2019-01-13T04:50:00.547Z,7.20
2019-01-13T04:51:24.113Z,7.20
2019-01-13T04:52:47.610Z,7.20
2019-01-13T04:54:11.118Z,7.30
2019-01-13T04:55:34.613Z,7.30
2019-01-13T04:57:17.267Z,7.30
2019-01-13T04:58:40.759Z,7.20
2019-01-13T05:01:55.593Z,7.30
2019-01-13T05:03:19.098Z,7.30
2019-01-13T05:06:48.950Z,7.30
2019-01-13T05:08:12.443Z,7.30
2019-01-13T05:09:35.944Z,7.30
2019-01-13T05:10:59.452Z,7.30
2019-01-13T05:12:22.952Z,7.30
2019-01-13T05:13:46.450Z,7.30
2019-01-13T05:15:10.034Z,7.20
2019-01-13T05:16:33.527Z,7.20
2019-01-13T05:17:57.034Z,7.20
2019-01-13T05:19:20.575Z,7.20
2019-01-13T05:20:44.071Z,7.20
2019-01-13T05:21:59.867Z,7.10
2019-01-13T05:23:14.188Z,7.10
2019-01-13T05:24:37.702Z,7.10
2019-01-13T05:26:01.215Z,7.10
2019-01-13T05:27:24.706Z,7.10
2019-01-13T05:28:48.197Z,7.00
2019-01-13T05:32:17.797Z,7.00
2019-01-13T05:33:41.298Z,7.00
2019-01-13T05:36:54.114Z,7.00
2019-01-13T05:38:17.621Z,7.00
2019-01-13T05:39:41.154Z,7.00
2019-01-13T05:41:23.812Z,7.10
2019-01-13T05:42:47.395Z,7.10
2019-01-13T05:44:10.955Z,7.10
2019-01-13T05:45:34.466Z,7.10
2019-01-13T05:46:57.962Z,7.10
2019-01-13T05:48:21.455Z,7.10
2019-01-13T05:49:44.941Z,7.10
2019-01-13T05:51:08.450Z,7.10
2019-01-13T05:52:31.945Z,7.10
2019-01-13T05:53:55.442Z,7.20
2019-01-13T05:57:22.142Z,7.20
2019-01-13T05:58:45.642Z,7.20
2019-01-13T06:00:11.250Z,7.20
2019-01-13T06:01:53.927Z,7.20
2019-01-13T06:03:17.419Z,7.20
2019-01-13T06:04:40.923Z,7.20
2019-01-13T06:06:04.497Z,7.20
2019-01-13T06:07:27.998Z,7.20
2019-01-13T06:08:51.498Z,7.20
2019-01-13T06:12:18.734Z,7.20
2019-01-13T06:13:42.230Z,7.20
2019-01-13T06:17:09.345Z,7.20
2019-01-13T06:18:32.842Z,7.20
2019-01-13T06:19:56.339Z,7.20
2019-01-13T06:21:19.846Z,7.20
2019-01-13T06:22:33.871Z,7.20
2019-01-13T06:23:57.366Z,7.20
2019-01-13T06:27:24.074Z,7.20
2019-01-13T06:28:47.573Z,7.20
2019-01-13T06:32:15.703Z,7.20
2019-01-13T06:33:39.202Z,7.20
2019-01-13T06:35:02.713Z,7.20
2019-01-13T06:36:26.212Z,7.20
2019-01-13T06:39:42.503Z,7.10
2019-01-13T06:41:05.991Z,7.10
2019-01-13T06:42:29.498Z,7.10
2019-01-13T06:43:53.007Z,7.10
2019-01-13T06:45:26.093Z,7.10
2019-01-13T06:46:49.605Z,7.10
2019-01-13T06:48:13.114Z,7.10
2019-01-13T06:49:36.692Z,7.10
2019-01-13T06:51:00.198Z,7.10
2019-01-13T06:52:23.714Z,7.10
2019-01-13T06:53:47.210Z,7.10
2019-01-13T06:57:13.960Z,7.10
2019-01-13T06:58:37.458Z,7.10
2019-01-13T07:00:00.958Z,7.10
2019-01-13T07:01:24.461Z,7.10
2019-01-13T07:02:47.969Z,7.10
2019-01-13T07:04:11.466Z,7.10
2019-01-13T07:05:34.950Z,7.10
2019-01-13T07:06:58.453Z,7.10
2019-01-13T07:08:21.967Z,7.10
2019-01-13T07:09:45.466Z,7.10
2019-01-13T07:11:08.961Z,7.10
2019-01-13T07:14:38.503Z,7.10
2019-01-13T07:16:02.011Z,7.10
2019-01-13T07:17:25.506Z,7.10
2019-01-13T07:18:49.009Z,7.20
2019-01-13T07:22:06.865Z,7.20
2019-01-13T07:23:30.374Z,7.20
2019-01-13T07:24:53.878Z,7.20
2019-01-13T07:27:41.178Z,7.20
2019-01-13T07:29:04.688Z,7.20
2019-01-13T07:30:28.202Z,7.20
2019-01-13T07:31:51.706Z,7.20
2019-01-13T07:33:15.207Z,7.20
2019-01-13T07:34:38.714Z,7.20
2019-01-13T07:36:02.215Z,7.20
2019-01-13T07:37:25.761Z,7.20
2019-01-13T07:38:49.267Z,7.20
2019-01-13T07:40:13.923Z,7.20
2019-01-13T07:41:37.430Z,7.30
2019-01-13T07:43:00.919Z,7.30
2019-01-13T07:44:24.422Z,7.30
2019-01-13T07:45:47.917Z,7.30
2019-01-13T07:47:11.432Z,7.30
2019-01-13T07:48:34.918Z,7.30
2019-01-13T07:49:58.424Z,7.30
2019-01-13T07:51:21.922Z,7.30
2019-01-13T07:54:48.626Z,7.30
2019-01-13T07:56:12.175Z,7.40
2019-01-13T07:57:35.694Z,7.30
2019-01-13T07:58:59.197Z,7.30
2019-01-13T08:00:43.179Z,7.30
2019-01-13T08:02:06.669Z,7.40
2019-01-13T08:03:30.257Z,7.40
2019-01-13T08:04:53.775Z,7.40
2019-01-13T08:06:17.269Z,7.40
2019-01-13T08:07:59.917Z,7.40
2019-01-13T08:09:23.405Z,7.40
2019-01-13T08:10:46.906Z,7.40
2019-01-13T08:12:10.417Z,7.40
2019-01-13T08:13:33.910Z,7.40
2019-01-13T08:14:57.423Z,7.40
2019-01-13T08:16:20.931Z,7.40
2019-01-13T08:17:44.438Z,7.50
2019-01-13T08:19:07.937Z,7.40
2019-01-13T08:20:52.555Z,7.40
2019-01-13T08:22:08.556Z,7.50
2019-01-13T08:23:23.040Z,7.50
2019-01-13T08:24:46.583Z,7.50
2019-01-13T08:26:10.182Z,7.50
2019-01-13T08:27:33.679Z,7.40
2019-01-13T08:28:57.212Z,7.40
2019-01-13T08:30:39.894Z,7.40
2019-01-13T08:32:03.466Z,7.40
2019-01-13T08:33:26.962Z,7.40
2019-01-13T08:34:50.466Z,7.40
2019-01-13T08:36:13.974Z,7.40
2019-01-13T08:37:37.470Z,7.50
2019-01-13T08:39:00.970Z,7.50
2019-01-13T08:40:43.638Z,7.50
2019-01-13T08:43:30.934Z,7.50
2019-01-13T08:44:54.427Z,7.50
2019-01-13T08:46:17.926Z,7.50
2019-01-13T08:47:41.424Z,7.60
2019-01-13T08:49:04.924Z,7.60
2019-01-13T08:50:28.496Z,7.60
2019-01-13T08:51:51.998Z,7.70
2019-01-13T08:53:15.486Z,7.70
2019-01-13T08:54:38.990Z,7.70
2019-01-13T08:56:02.508Z,7.70
2019-01-13T08:57:26.021Z,7.80
2019-01-13T08:59:08.598Z,7.80
2019-01-13T09:00:32.802Z,7.80
2019-01-13T09:02:15.467Z,7.80
2019-01-13T09:03:38.977Z,7.80
2019-01-13T09:05:02.469Z,7.90
2019-01-13T09:06:45.144Z,7.90
2019-01-13T09:10:12.854Z,7.90
2019-01-13T09:11:36.367Z,7.90
2019-01-13T09:13:19.023Z,7.90
2019-01-13T09:14:42.515Z,8.00
2019-01-13T09:16:06.026Z,8.00
2019-01-13T09:17:29.514Z,8.00
2019-01-13T09:18:53.010Z,8.00
2019-01-13T09:20:17.884Z,8.10
2019-01-13T09:21:43.462Z,8.10
2019-01-13T09:23:07.037Z,8.20
2019-01-13T09:24:30.541Z,8.20
2019-01-13T09:25:54.050Z,8.20
2019-01-13T09:28:46.990Z,8.20
2019-01-13T09:32:15.191Z,8.20
2019-01-13T09:33:38.686Z,8.20
2019-01-13T09:35:02.190Z,8.20
2019-01-13T09:36:25.736Z,8.20
2019-01-13T09:39:52.415Z,8.30
2019-01-13T09:42:59.464Z,8.30
2019-01-13T09:44:22.954Z,8.30
2019-01-13T09:45:46.522Z,8.30
2019-01-13T09:47:10.030Z,8.40
2019-01-13T09:48:33.590Z,8.40
2019-01-13T09:49:57.078Z,8.40
2019-01-13T09:53:22.339Z,8.50
2019-01-13T09:54:45.829Z,8.50
2019-01-13T09:56:28.478Z,8.60
2019-01-13T09:57:52.071Z,8.60
2019-01-13T09:59:15.562Z,8.70
2019-01-13T10:02:46.581Z,8.70
2019-01-13T10:04:07.465Z,8.80
2019-01-13T10:05:31.046Z,8.80
2019-01-13T10:08:37.124Z,8.90
2019-01-13T10:10:00.630Z,8.90
2019-01-13T10:11:24.132Z,8.90
2019-01-13T10:12:47.630Z,9.00
2019-01-13T10:14:11.133Z,9.00
2019-01-13T10:15:34.812Z,9.00
2019-01-13T10:16:58.315Z,9.10
2019-01-13T10:18:21.823Z,9.10
2019-01-13T10:19:45.322Z,9.10
2019-01-13T10:21:08.826Z,9.10
2019-01-13T10:22:23.111Z,9.10
2019-01-13T10:23:46.622Z,9.10
2019-01-13T10:27:13.350Z,9.00
2019-01-13T10:28:36.869Z,9.00
2019-01-13T10:30:00.378Z,9.00
2019-01-13T10:31:43.035Z,9.00
2019-01-13T10:33:06.547Z,9.00
2019-01-13T10:34:30.060Z,9.00
2019-01-13T10:35:53.572Z,9.00
2019-01-13T10:37:17.066Z,9.00
2019-01-13T10:38:40.574Z,9.00
2019-01-13T10:42:07.958Z,9.00
2019-01-13T10:43:31.467Z,9.00
2019-01-13T10:44:54.967Z,9.00
2019-01-13T10:46:18.486Z,9.00
2019-01-13T10:48:01.147Z,9.00
2019-01-13T10:49:43.803Z,9.00
2019-01-13T10:51:26.455Z,9.00
2019-01-13T10:52:50.152Z,9.00
2019-01-13T10:54:13.662Z,9.10
2019-01-13T10:55:37.157Z,9.10
2019-01-13T10:57:00.659Z,9.10
2019-01-13T10:58:24.207Z,9.10
2019-01-13T10:59:47.783Z,9.20
2019-01-13T11:01:11.277Z,9.10
2019-01-13T11:02:34.779Z,9.10
2019-01-13T11:03:58.298Z,9.10
2019-01-13T11:07:25.010Z,9.10
2019-01-13T11:08:48.513Z,9.20
2019-01-13T11:10:12.546Z,9.20
2019-01-13T11:11:36.264Z,9.20
2019-01-13T11:15:03.041Z,9.30
2019-01-13T11:16:45.694Z,9.20
2019-01-13T11:18:28.351Z,9.30
2019-01-13T11:19:51.855Z,9.30
2019-01-13T11:21:15.354Z,9.30
2019-01-13T11:22:31.269Z,9.30
2019-01-13T11:23:45.673Z,9.30
2019-01-13T11:27:02.367Z,9.40
2019-01-13T11:28:25.895Z,9.40
2019-01-13T11:29:49.398Z,9.40
2019-01-13T11:31:12.902Z,9.40
2019-01-13T11:32:36.398Z,9.40
2019-01-13T11:33:59.895Z,9.40
2019-01-13T11:37:16.246Z,9.50
2019-01-13T11:38:58.909Z,9.50
2019-01-13T11:40:23.449Z,9.50
2019-01-13T11:41:46.935Z,9.50
2019-01-13T11:43:11.334Z,9.50
2019-01-13T11:44:35.628Z,9.50
2019-01-13T11:45:59.117Z,9.50
2019-01-13T11:47:22.622Z,9.50
2019-01-13T11:48:46.123Z,9.50
2019-01-13T11:50:11.122Z,9.50
2019-01-13T11:51:53.776Z,9.50
2019-01-13T11:53:17.272Z,9.50
2019-01-13T11:54:40.773Z,9.50
2019-01-13T11:58:07.607Z,9.40
2019-01-13T11:59:31.123Z,9.40
2019-01-13T12:00:54.615Z,9.30
2019-01-13T12:02:18.105Z,9.30
2019-01-13T12:03:41.606Z,9.30
2019-01-13T12:06:55.309Z,9.30
2019-01-13T12:08:18.864Z,9.30
2019-01-13T12:09:42.398Z,9.30
2019-01-13T12:12:48.570Z,9.20
2019-01-13T12:14:12.070Z,9.20
2019-01-13T12:15:35.578Z,9.10
2019-01-13T12:16:59.146Z,9.10
2019-01-13T12:18:22.661Z,9.10
2019-01-13T12:19:46.179Z,9.10
2019-01-13T12:21:09.750Z,9.10
2019-01-13T12:22:25.598Z,9.10
2019-01-13T12:23:41.555Z,9.10
2019-01-13T12:24:57.533Z,9.10
2019-01-13T12:26:13.538Z,9.10
2019-01-13T12:27:29.522Z,9.10
2019-01-13T12:28:43.950Z,9.10
2019-01-13T12:30:08.601Z,9.10
2019-01-13T12:31:32.386Z,9.10
2019-01-13T12:35:00.527Z,9.10
2019-01-13T12:36:24.044Z,9.10
2019-01-13T12:39:50.806Z,9.10
2019-01-13T12:41:14.313Z,9.10
2019-01-13T12:42:37.820Z,9.20
2019-01-13T12:44:01.318Z,9.10
2019-01-13T12:45:25.583Z,9.10
2019-01-13T12:47:08.248Z,9.20
2019-01-13T12:48:31.754Z,9.20
2019-01-13T12:49:55.243Z,9.20
2019-01-13T12:51:18.760Z,9.20
2019-01-13T12:52:42.262Z,9.20
2019-01-13T12:54:05.770Z,9.20
2019-01-13T12:55:29.285Z,9.10
2019-01-13T12:56:52.786Z,9.20
2019-01-13T12:58:16.299Z,9.20
2019-01-13T12:59:39.802Z,9.20
2019-01-13T13:02:32.833Z,9.20
2019-01-13T13:03:56.379Z,9.20
2019-01-13T13:07:09.355Z,9.20
2019-01-13T13:08:32.855Z,9.20
2019-01-13T13:09:56.350Z,9.20
2019-01-13T13:11:19.871Z,9.20
2019-01-13T13:12:43.374Z,9.20
2019-01-13T13:14:06.889Z,9.20
2019-01-13T13:15:30.470Z,9.20
2019-01-13T13:16:53.983Z,9.30
2019-01-13T13:18:36.659Z,9.30
2019-01-13T13:20:00.236Z,9.30
2019-01-13T13:21:23.782Z,9.30
2019-01-13T13:22:47.363Z,9.40
2019-01-13T13:25:53.462Z,9.50
2019-01-13T13:27:16.954Z,9.50
2019-01-13T13:28:40.466Z,9.50
2019-01-13T13:32:07.722Z,9.40
2019-01-13T13:33:31.226Z,9.40
2019-01-13T13:34:55.831Z,9.40
2019-01-13T13:36:19.990Z,9.40
2019-01-13T13:37:43.562Z,9.30
2019-01-13T13:41:11.382Z,9.40
2019-01-13T13:42:54.023Z,9.40
2019-01-13T13:44:17.528Z,9.40
2019-01-13T13:45:41.029Z,9.40
2019-01-13T13:47:04.661Z,9.50
2019-01-13T13:48:28.154Z,9.50
2019-01-13T13:49:51.692Z,9.50
2019-01-13T13:51:34.421Z,9.60
2019-01-13T13:52:57.937Z,9.60
2019-01-13T13:54:21.514Z,9.60
2019-01-13T13:55:45.003Z,9.60
2019-01-13T13:57:08.518Z,9.60
2019-01-13T13:58:32.051Z,9.50
2019-01-13T13:59:55.578Z,9.50
2019-01-13T14:01:19.094Z,9.50
2019-01-13T14:02:42.660Z,9.50
2019-01-13T14:04:06.156Z,9.40
2019-01-13T14:07:32.972Z,9.40
2019-01-13T14:10:59.692Z,9.40
2019-01-13T14:12:23.186Z,9.30
2019-01-13T14:13:46.754Z,9.30
2019-01-13T14:15:10.323Z,9.40
2019-01-13T14:16:33.874Z,9.40
2019-01-13T14:17:57.366Z,9.40
2019-01-13T14:19:20.923Z,9.40
2019-01-13T14:21:03.596Z,9.40
2019-01-13T14:22:17.638Z,9.40
2019-01-13T14:23:41.145Z,9.30
2019-01-13T14:27:08.018Z,9.30
2019-01-13T14:28:31.554Z,9.20
2019-01-13T14:29:55.115Z,9.20
2019-01-13T14:31:19.060Z,9.10
2019-01-13T14:33:01.840Z,9.10
2019-01-13T14:34:25.382Z,9.10
2019-01-13T14:35:48.922Z,9.00
2019-01-13T14:37:12.458Z,9.00
2019-01-13T14:38:36.046Z,8.90
2019-01-13T14:41:43.901Z,8.80
2019-01-13T14:43:07.494Z,8.80
2019-01-13T14:44:31.048Z,8.80
2019-01-13T14:45:54.534Z,8.70
2019-01-13T14:47:18.070Z,8.70
2019-01-13T14:48:41.611Z,8.70
2019-01-13T14:50:24.585Z,8.70
2019-01-13T14:51:48.091Z,8.70
2019-01-13T14:53:11.601Z,8.60
2019-01-13T14:54:35.110Z,8.60
2019-01-13T14:55:58.659Z,8.60
2019-01-13T14:57:22.249Z,8.60
2019-01-13T14:58:45.751Z,8.60
2019-01-13T15:02:01.134Z,8.60
2019-01-13T15:03:24.639Z,8.60
2019-01-13T15:04:48.179Z,8.50
2019-01-13T15:06:11.672Z,8.50
2019-01-13T15:07:35.174Z,8.50
2019-01-13T15:08:58.695Z,8.50
2019-01-13T15:10:22.476Z,8.50
2019-01-13T15:11:46.084Z,8.50
2019-01-13T15:13:09.595Z,8.40
2019-01-13T15:14:33.094Z,8.40
2019-01-13T15:15:56.610Z,8.40
2019-01-13T15:17:20.109Z,8.30
2019-01-13T15:18:43.667Z,8.20
2019-01-13T15:20:08.655Z,8.30
2019-01-13T15:21:32.182Z,8.30
2019-01-13T15:22:55.804Z,8.20
2019-01-13T15:24:19.366Z,8.20
2019-01-13T15:25:42.891Z,8.20
2019-01-13T15:27:06.450Z,8.10
2019-01-13T15:28:30.020Z,8.10
2019-01-13T15:29:53.548Z,8.10
2019-01-13T15:31:17.151Z,8.10
2019-01-13T15:32:40.666Z,8.10
2019-01-13T15:34:07.378Z,8.00
2019-01-13T15:35:29.454Z,8.00
2019-01-13T15:36:52.983Z,8.00
2019-01-13T15:38:16.486Z,8.10
2019-01-13T15:39:40.015Z,8.00
2019-01-13T15:41:03.521Z,8.00
2019-01-13T15:42:27.030Z,8.00
2019-01-13T15:43:50.521Z,8.00
2019-01-13T15:47:17.363Z,7.90
2019-01-13T15:48:40.860Z,7.90
2019-01-13T15:50:04.974Z,7.90
2019-01-13T15:51:28.515Z,7.90
2019-01-13T15:54:55.359Z,7.80
2019-01-13T15:56:18.859Z,7.80
2019-01-13T15:57:42.444Z,7.80
2019-01-13T15:59:06.134Z,7.70
2019-01-13T16:00:30.987Z,7.70
2019-01-13T16:03:44.467Z,7.70
2019-01-13T16:05:08.042Z,7.70
2019-01-13T16:06:31.594Z,7.70
2019-01-13T16:07:55.175Z,7.60
2019-01-13T16:11:22.017Z,7.60
2019-01-13T16:12:45.566Z,7.60
2019-01-13T16:14:09.066Z,7.60
2019-01-13T16:15:34.382Z,7.60
2019-01-13T16:16:57.755Z,7.60
2019-01-13T16:18:21.257Z,7.60
2019-01-13T16:19:44.777Z,7.60
2019-01-13T16:21:08.269Z,7.60
2019-01-13T16:22:22.291Z,7.60
2019-01-13T16:23:45.809Z,7.60
2019-01-13T16:25:09.398Z,7.60
2019-01-13T16:26:52.067Z,7.60
2019-01-13T16:28:15.711Z,7.60
2019-01-13T16:29:39.322Z,7.60
2019-01-13T16:31:02.877Z,7.50
2019-01-13T16:32:26.390Z,7.50
2019-01-13T16:33:49.906Z,7.50
2019-01-13T16:35:13.493Z,7.40
2019-01-13T16:36:37.004Z,7.40
2019-01-13T16:38:01.262Z,7.40
2019-01-13T16:39:24.762Z,7.40
2019-01-13T16:40:48.267Z,7.40
2019-01-13T16:42:11.762Z,7.50
2019-01-13T16:43:35.296Z,7.50
2019-01-13T16:44:58.794Z,7.50
2019-01-13T16:46:22.286Z,7.50
2019-01-13T16:47:45.902Z,7.60
2019-01-13T16:49:09.410Z,7.60
2019-01-13T16:50:32.988Z,7.60
2019-01-13T16:51:56.490Z,7.60
2019-01-13T16:53:20.130Z,7.70
2019-01-13T16:56:46.949Z,7.70
2019-01-13T16:58:10.467Z,7.70
2019-01-13T16:59:33.982Z,7.70
2019-01-13T17:00:57.510Z,7.70
2019-01-13T17:05:53.564Z,7.80
2019-01-13T17:07:17.054Z,7.90
2019-01-13T17:08:40.626Z,8.00
2019-01-13T17:10:05.039Z,8.10
2019-01-13T17:13:11.197Z,8.20
2019-01-13T17:14:34.722Z,8.20
2019-01-13T17:15:58.232Z,8.30
2019-01-13T17:17:21.746Z,8.30
2019-01-13T17:18:45.251Z,8.40
2019-01-13T17:20:10.665Z,8.40
2019-01-13T17:21:34.187Z,8.50
2019-01-13T17:22:58.670Z,8.50
2019-01-13T17:24:22.187Z,8.50
2019-01-13T17:25:45.688Z,8.60
2019-01-13T17:27:09.195Z,8.60
2019-01-13T17:28:32.697Z,8.60
2019-01-13T17:29:57.688Z,8.60
2019-01-13T17:31:21.473Z,8.60
2019-01-13T17:32:45.033Z,8.60
2019-01-13T17:34:08.530Z,8.60
2019-01-13T17:35:32.054Z,8.60
2019-01-13T17:36:55.563Z,8.70
2019-01-13T17:38:19.079Z,8.70
2019-01-13T17:39:42.596Z,8.70
2019-01-13T17:41:06.090Z,8.70
2019-01-13T17:42:29.582Z,8.70
2019-01-13T17:43:53.089Z,8.70
2019-01-13T17:45:17.286Z,8.70
2019-01-13T17:46:40.839Z,8.70
2019-01-13T17:48:06.135Z,8.70
2019-01-13T17:49:29.633Z,8.70
2019-01-13T17:50:53.152Z,8.70
2019-01-13T17:52:16.655Z,8.70
2019-01-13T17:53:40.222Z,8.70
2019-01-13T17:57:13.134Z,8.70
2019-01-13T17:58:36.658Z,8.80
2019-01-13T18:00:00.162Z,8.80
2019-01-13T18:01:26.106Z,8.80
2019-01-13T18:02:49.677Z,8.80
2019-01-13T18:04:13.191Z,8.80
2019-01-13T18:05:36.766Z,8.70
2019-01-13T18:07:00.297Z,8.70
2019-01-13T18:08:23.803Z,8.80
2019-01-13T18:09:47.303Z,8.80
2019-01-13T18:11:10.815Z,8.80
2019-01-13T18:12:34.347Z,8.80
2019-01-13T18:13:57.858Z,8.70
2019-01-13T18:15:21.373Z,8.80
2019-01-13T18:16:44.895Z,8.80
2019-01-13T18:18:08.718Z,8.80
2019-01-13T18:19:32.235Z,8.80
2019-01-13T18:20:55.742Z,8.80
2019-01-13T18:22:11.747Z,8.80
2019-01-13T18:23:27.767Z,8.80
2019-01-13T18:24:42.077Z,8.90
2019-01-13T18:26:05.593Z,8.90
2019-01-13T18:27:30.847Z,8.90
2019-01-13T18:28:54.354Z,8.90
2019-01-13T18:32:22.214Z,8.80
2019-01-13T18:33:45.730Z,8.90
2019-01-13T18:37:13.477Z,8.90
2019-01-13T18:38:36.990Z,8.80
2019-01-13T18:40:00.507Z,8.80
2019-01-13T18:41:24.041Z,8.80
2019-01-13T18:42:47.551Z,8.70
2019-01-13T18:44:11.062Z,8.70
2019-01-13T18:45:34.588Z,8.60
2019-01-13T18:46:58.130Z,8.50
2019-01-13T18:48:21.719Z,8.40
2019-01-13T18:49:45.254Z,8.30
2019-01-13T18:51:08.750Z,8.20
2019-01-13T18:52:32.280Z,8.20
2019-01-13T18:53:55.791Z,8.10
2019-01-13T18:55:19.312Z,8.10
2019-01-13T18:56:42.810Z,8.00
2019-01-13T18:58:06.322Z,8.00
2019-01-13T18:59:48.987Z,7.90
2019-01-13T19:01:12.518Z,7.90
2019-01-13T19:02:36.025Z,7.90
2019-01-13T19:03:59.612Z,7.90
2019-01-13T19:05:23.357Z,7.90
2019-01-13T19:06:46.874Z,7.80
2019-01-13T19:08:10.379Z,7.80
2019-01-13T19:09:33.887Z,7.80
2019-01-13T19:11:16.622Z,7.80
2019-01-13T19:12:40.134Z,7.80
2019-01-13T19:14:22.862Z,7.80
2019-01-13T19:15:47.244Z,7.80
2019-01-13T19:17:11.625Z,7.80
2019-01-13T19:18:35.125Z,7.80
2019-01-13T19:20:17.890Z,7.80
2019-01-13T19:21:41.431Z,7.80
2019-01-13T19:23:06.659Z,7.80
2019-01-13T19:24:30.170Z,7.80
2019-01-13T19:25:53.674Z,7.80
2019-01-13T19:27:17.198Z,7.80
2019-01-13T19:28:40.728Z,7.80
2019-01-13T19:32:08.254Z,7.80
2019-01-13T19:33:31.794Z,7.80
2019-01-13T19:34:55.331Z,7.80
2019-01-13T19:36:18.962Z,7.80
2019-01-13T19:37:42.473Z,7.80
2019-01-13T19:40:57.317Z,7.80
2019-01-13T19:42:20.817Z,7.70
2019-01-13T19:43:44.354Z,7.70
2019-01-13T19:47:30.583Z,7.70
2019-01-13T19:48:54.094Z,7.70
2019-01-13T19:50:18.639Z,7.70
2019-01-13T19:51:42.162Z,7.70
2019-01-13T19:53:05.674Z,7.70
2019-01-13T19:54:29.179Z,7.80
2019-01-13T19:55:52.688Z,7.80
2019-01-13T19:57:16.182Z,7.80
2019-01-13T19:58:39.693Z,7.80
2019-01-13T20:02:06.534Z,7.80
2019-01-13T20:03:30.034Z,7.80
2019-01-13T20:04:53.530Z,7.80
2019-01-13T20:06:17.042Z,7.80
2019-01-13T20:07:40.551Z,7.80
2019-01-13T20:10:55.746Z,7.80
2019-01-13T20:12:19.250Z,7.80
2019-01-13T20:13:42.774Z,7.80
2019-01-13T20:17:10.371Z,7.80
2019-01-13T20:18:33.877Z,7.80
2019-01-13T20:19:57.386Z,7.80
2019-01-13T20:21:20.898Z,7.80
2019-01-13T20:22:34.850Z,7.80
2019-01-13T20:23:58.362Z,7.80
2019-01-13T20:25:21.897Z,7.80
2019-01-13T20:26:45.406Z,7.70
2019-01-13T20:28:08.902Z,7.70
2019-01-13T20:29:32.411Z,7.60
2019-01-13T20:32:38.595Z,7.50
2019-01-13T20:34:21.266Z,7.40
2019-01-13T20:36:03.944Z,7.40
2019-01-13T20:37:27.455Z,7.30
2019-01-13T20:38:50.958Z,7.30
2019-01-13T20:42:23.128Z,7.10
2019-01-13T20:43:46.638Z,7.10
2019-01-13T20:45:11.958Z,7.00
2019-01-13T20:46:35.479Z,7.00
2019-01-13T20:47:58.980Z,7.00
2019-01-13T20:49:22.497Z,6.90
2019-01-13T20:50:46.033Z,6.90
2019-01-13T20:52:09.554Z,6.80
2019-01-13T20:53:33.055Z,6.80
2019-01-13T20:54:56.558Z,6.70
2019-01-13T20:56:20.090Z,6.60
2019-01-13T20:57:43.582Z,6.60
2019-01-13T20:59:07.104Z,6.60
2019-01-13T21:02:20.669Z,6.50
2019-01-13T21:03:44.230Z,6.50
2019-01-13T21:06:52.046Z,6.40
2019-01-13T21:08:15.932Z,6.40
2019-01-13T21:09:39.495Z,6.40
2019-01-13T21:11:03.035Z,6.40
2019-01-13T21:12:26.567Z,6.40
2019-01-13T21:13:50.073Z,6.40
2019-01-13T21:17:18.258Z,6.50
2019-01-13T21:18:41.774Z,6.50
2019-01-13T21:22:01.090Z,6.50
2019-01-13T21:23:15.582Z,6.40
2019-01-13T21:24:39.093Z,6.50
2019-01-13T21:26:02.632Z,6.50
2019-01-13T21:29:10.407Z,6.50
2019-01-13T21:32:26.693Z,6.40
2019-01-13T21:33:50.195Z,6.40
2019-01-13T21:35:13.778Z,6.40
2019-01-13T21:36:37.291Z,6.40
2019-01-13T21:38:00.793Z,6.30
2019-01-13T21:39:43.460Z,6.30
2019-01-13T21:41:06.950Z,6.30
2019-01-13T21:42:30.480Z,6.30
2019-01-13T21:43:54.248Z,6.20